Time;durP1;ratioP1;P1;durP2;ratioP2;P2;SDS_P1;SDS_P2;PMS_P1;PMS_P2;Temp;Humidity;BMP_temperature;BMP_pressure;BME280_temperature;BME280_humidity;BME280_pressure;Samples;Min_cycle;Max_cycle;Signal;HPM_P1;HPM_P2
2023/04/29 00:00:18;;;;;;;11.45;3.55;;;;;;;;;;20839279;28;20053;-61
2023/04/29 00:10:20;;;;;;;7.50;3.45;;;;;;;;;;20837981;28;20061;-61
2023/04/29 00:20:22;;;;;;;7.95;2.83;;;;;;;;;;20837528;28;20487;-61
2023/04/29 00:30:23;;;;;;;4.90;2.55;;;;;;;;;;20835297;28;20425;-61
2023/04/29 00:40:27;;;;;;;7.70;2.85;;;;;;;;;;20834258;28;20054;-61
2023/04/29 00:50:29;;;;;;;8.48;3.00;;;;;;;;;;20833779;28;20135;-61
2023/04/29 01:00:32;;;;;;;10.55;2.80;;;;;;;;;;20832978;28;20045;-61
2023/04/29 01:10:53;;;;;;;6.93;2.80;;;;;;;;;;20833481;28;20050;-60
2023/04/29 01:20:56;;;;;;;8.10;2.80;;;;;;;;;;20833008;28;20098;-61
2023/04/29 01:31:10;;;;;;;6.22;2.15;;;;;;;;;;20830678;28;20084;-61
2023/04/29 01:41:17;;;;;;;3.00;1.77;;;;;;;;;;20831706;28;20049;-61
2023/04/29 01:51:20;;;;;;;6.30;2.28;;;;;;;;;;20831322;28;20061;-61
2023/04/29 02:01:22;;;;;;;5.10;1.90;;;;;;;;;;20831460;28;20483;-61
2023/04/29 02:11:24;;;;;;;7.18;1.80;;;;;;;;;;20830784;28;20485;-61
2023/04/29 02:21:26;;;;;;;4.93;2.10;;;;;;;;;;20830162;28;20071;-60
2023/04/29 02:31:28;;;;;;;4.68;2.10;;;;;;;;;;20828582;28;20049;-60
2023/04/29 02:41:29;;;;;;;3.70;2.33;;;;;;;;;;20829536;28;20095;-62
2023/04/29 02:51:31;;;;;;;7.43;1.70;;;;;;;;;;20828041;28;20099;-62
2023/04/29 03:01:33;;;;;;;5.10;2.00;;;;;;;;;;20841544;28;20145;-61
2023/04/29 03:11:34;;;;;;;5.20;2.50;;;;;;;;;;20841978;28;20045;-61
2023/04/29 03:21:36;;;;;;;7.80;2.85;;;;;;;;;;20841132;28;20053;-61
2023/04/29 03:31:38;;;;;;;7.40;3.17;;;;;;;;;;20840240;28;20152;-60
2023/04/29 03:41:40;;;;;;;10.55;3.00;;;;;;;;;;20839744;28;20056;-61
2023/04/29 03:51:44;;;;;;;6.47;3.10;;;;;;;;;;20839194;28;20128;-60
2023/04/29 04:01:45;;;;;;;7.35;3.08;;;;;;;;;;20839158;28;20452;-61
2023/04/29 04:11:47;;;;;;;6.63;2.75;;;;;;;;;;20837609;28;20497;-60
2023/04/29 04:21:49;;;;;;;5.70;2.20;;;;;;;;;;20837632;28;20045;-62
2023/04/29 04:31:51;;;;;;;5.65;2.30;;;;;;;;;;20836028;28;20542;-60
2023/04/29 04:41:52;;;;;;;5.53;1.55;;;;;;;;;;20834728;28;20049;-61
2023/04/29 04:51:54;;;;;;;5.68;2.30;;;;;;;;;;20835237;28;20050;-61
2023/04/29 05:01:56;;;;;;;4.57;2.15;;;;;;;;;;20833221;28;20045;-59
2023/04/29 05:11:58;;;;;;;3.42;1.88;;;;;;;;;;20832722;28;20050;-61
2023/04/29 05:22:00;;;;;;;9.20;2.67;;;;;;;;;;20834138;28;20486;-61
2023/04/29 05:32:02;;;;;;;3.95;2.28;;;;;;;;;;20833464;28;20053;-61
2023/04/29 05:42:03;;;;;;;4.55;1.80;;;;;;;;;;20832260;28;20556;-61
2023/04/29 05:52:05;;;;;;;5.53;2.20;;;;;;;;;;20831387;28;20056;-61
2023/04/29 06:02:09;;;;;;;5.22;1.52;;;;;;;;;;20831479;28;20050;-61
2023/04/29 06:12:11;;;;;;;4.68;2.33;;;;;;;;;;20830990;28;20414;-61
2023/04/29 06:22:13;;;;;;;4.07;1.50;;;;;;;;;;20830641;28;20111;-61
2023/04/29 06:32:15;;;;;;;4.55;1.55;;;;;;;;;;20837278;28;20415;-61
2023/04/29 06:42:17;;;;;;;3.33;1.45;;;;;;;;;;20845111;28;20045;-61
2023/04/29 06:52:19;;;;;;;3.13;1.45;;;;;;;;;;20844287;28;20415;-61
2023/04/29 07:02:20;;;;;;;5.25;1.27;;;;;;;;;;20842206;28;20064;-61
2023/04/29 07:12:22;;;;;;;2.42;1.35;;;;;;;;;;20842011;28;20056;-61
2023/04/29 07:22:24;;;;;;;4.43;1.23;;;;;;;;;;20841887;28;20198;-60
2023/04/29 07:32:27;;;;;;;4.15;1.38;;;;;;;;;;20840720;28;20053;-61
2023/04/29 07:42:28;;;;;;;2.83;1.25;;;;;;;;;;20839685;28;20096;-60
2023/04/29 07:52:30;;;;;;;2.95;1.67;;;;;;;;;;20840156;28;20059;-61
2023/04/29 08:02:32;;;;;;;5.30;1.60;;;;;;;;;;20838946;28;20057;-61
2023/04/29 08:12:34;;;;;;;5.13;1.40;;;;;;;;;;20837801;28;20485;-61
2023/04/29 08:22:36;;;;;;;3.08;1.45;;;;;;;;;;20837354;28;20049;-61
2023/04/29 08:32:37;;;;;;;8.27;1.63;;;;;;;;;;20833951;28;20055;-61
2023/04/29 08:42:40;;;;;;;4.63;1.48;;;;;;;;;;20833538;28;20049;-61
2023/04/29 08:52:41;;;;;;;3.92;1.30;;;;;;;;;;20826166;28;20049;-61
2023/04/29 09:02:45;;;;;;;3.67;1.52;;;;;;;;;;20823629;28;20056;-62
2023/04/29 09:12:47;;;;;;;4.93;1.20;;;;;;;;;;20831761;28;20139;-62
2023/04/29 09:22:49;;;;;;;6.07;2.08;;;;;;;;;;20832668;28;20455;-61
2023/04/29 09:33:07;;;;;;;3.25;1.80;;;;;;;;;;20830471;28;20096;-62
2023/04/29 09:43:17;;;;;;;3.42;2.22;;;;;;;;;;20831213;28;20092;-61
2023/04/29 09:53:27;;;;;;;11.15;3.10;;;;;;;;;;20829767;28;20076;-62
2023/04/29 10:03:36;;;;;;;7.70;1.88;;;;;;;;;;20831879;28;20441;-61
2023/04/29 10:13:42;;;;;;;3.08;2.17;;;;;;;;;;20847262;28;20054;-62
2023/04/29 10:23:45;;;;;;;4.25;1.80;;;;;;;;;;20846251;28;20060;-62
2023/04/29 10:33:47;;;;;;;3.28;1.30;;;;;;;;;;20844100;28;20049;-61
2023/04/29 10:43:50;;;;;;;1.38;1.02;;;;;;;;;;20842752;28;20398;-61
2023/04/29 10:53:58;;;;;;;6.70;1.27;;;;;;;;;;20838457;28;20046;-62
2023/04/29 11:04:03;;;;;;;7.47;1.50;;;;;;;;;;20834565;28;20052;-62
2023/04/29 11:14:08;;;;;;;7.05;1.40;;;;;;;;;;20834390;28;20058;-62
2023/04/29 11:24:11;;;;;;;5.85;1.40;;;;;;;;;;20841142;28;20057;-61
2023/04/29 11:34:13;;;;;;;6.18;1.85;;;;;;;;;;20840134;28;20049;-61
2023/04/29 11:44:21;;;;;;;4.00;1.70;;;;;;;;;;20839129;28;20041;-63
2023/04/29 11:54:25;;;;;;;2.08;1.10;;;;;;;;;;20837933;28;20422;-63
2023/04/29 12:04:27;;;;;;;4.30;1.58;;;;;;;;;;20836402;28;20053;-61
2023/04/29 12:14:29;;;;;;;2.65;0.90;;;;;;;;;;20837169;28;20045;-62
2023/04/29 12:24:37;;;;;;;1.67;1.20;;;;;;;;;;20835648;28;20053;-63
2023/04/29 12:34:39;;;;;;;3.70;1.30;;;;;;;;;;20834476;28;20049;-61
2023/04/29 12:44:40;;;;;;;1.70;0.80;;;;;;;;;;20834416;28;20068;-61
2023/04/29 12:54:42;;;;;;;2.55;1.20;;;;;;;;;;20834011;28;20049;-62
2023/04/29 13:04:44;;;;;;;3.92;1.20;;;;;;;;;;20834044;28;20106;-61
2023/04/29 13:14:46;;;;;;;1.50;0.80;;;;;;;;;;20832493;28;20046;-61
2023/04/29 13:24:48;;;;;;;1.50;0.80;;;;;;;;;;20832158;28;20088;-62
2023/04/29 13:34:50;;;;;;;2.05;0.70;;;;;;;;;;20831647;28;20049;-61
2023/04/29 13:44:55;;;;;;;3.72;0.98;;;;;;;;;;20827220;28;20046;-62
2023/04/29 13:54:57;;;;;;;1.38;0.50;;;;;;;;;;20830800;28;20053;-61
2023/04/29 14:04:59;;;;;;;2.78;0.73;;;;;;;;;;20830083;28;20042;-63
2023/04/29 14:15:01;;;;;;;2.03;0.43;;;;;;;;;;20829448;28;20049;-62
2023/04/29 14:25:03;;;;;;;1.20;0.52;;;;;;;;;;20828952;28;20598;-62
2023/04/29 14:35:05;;;;;;;3.15;0.40;;;;;;;;;;20829139;28;20486;-62
2023/04/29 14:45:07;;;;;;;1.73;0.40;;;;;;;;;;20828722;28;20045;-60
2023/04/29 14:55:09;;;;;;;6.22;0.30;;;;;;;;;;20836869;28;20076;-61
2023/04/29 15:05:11;;;;;;;2.60;0.20;;;;;;;;;;20842815;28;20045;-62
2023/04/29 15:15:13;;;;;;;0.47;0.17;;;;;;;;;;20840522;28;20060;-61
2023/04/29 15:25:15;;;;;;;3.30;0.30;;;;;;;;;;20840544;28;20053;-62
2023/04/29 15:35:17;;;;;;;1.52;0.22;;;;;;;;;;20840768;28;20498;-62
2023/04/29 15:45:18;;;;;;;1.50;0.40;;;;;;;;;;20840183;28;20050;-62
2023/04/29 15:55:21;;;;;;;2.72;1.77;;;;;;;;;;20838415;28;20111;-61
2023/04/29 16:05:22;;;;;;;1.08;0.30;;;;;;;;;;20836274;28;20045;-62
2023/04/29 16:15:24;;;;;;;1.27;0.60;;;;;;;;;;20837480;28;20053;-63
2023/04/29 16:25:26;;;;;;;1.38;0.52;;;;;;;;;;20835169;28;20056;-61
2023/04/29 16:35:29;;;;;;;2.35;1.33;;;;;;;;;;20834695;28;20049;-62
2023/04/29 16:45:31;;;;;;;3.63;1.42;;;;;;;;;;20833370;28;20060;-62
2023/04/29 16:55:33;;;;;;;2.47;0.25;;;;;;;;;;20833590;28;20041;-62
2023/04/29 17:05:35;;;;;;;1.33;0.50;;;;;;;;;;20832735;28;20059;-62
2023/04/29 17:15:37;;;;;;;1.13;0.30;;;;;;;;;;20831937;28;20376;-62
2023/04/29 17:25:38;;;;;;;0.75;0.40;;;;;;;;;;20831533;28;20069;-63
2023/04/29 17:35:40;;;;;;;2.88;0.77;;;;;;;;;;20831433;28;20084;-63
2023/04/29 17:45:42;;;;;;;4.13;1.85;;;;;;;;;;20830138;28;20151;-61
2023/04/29 17:55:44;;;;;;;2.90;1.50;;;;;;;;;;20829757;28;20050;-62
2023/04/29 18:05:46;;;;;;;3.25;2.10;;;;;;;;;;20829521;28;20049;-62
2023/04/29 18:15:48;;;;;;;0.90;0.30;;;;;;;;;;20829099;28;20051;-62
2023/04/29 18:25:50;;;;;;;1.13;0.35;;;;;;;;;;20831447;28;20049;-63
2023/04/29 18:35:53;;;;;;;1.00;0.30;;;;;;;;;;20845804;28;20053;-62
2023/04/29 18:45:56;;;;;;;1.45;0.20;;;;;;;;;;20842945;28;20054;-62
2023/04/29 18:55:58;;;;;;;0.75;0.38;;;;;;;;;;20843725;28;20049;-62
2023/04/29 19:05:59;;;;;;;2.65;0.35;;;;;;;;;;20842521;28;20409;-62
2023/04/29 19:16:01;;;;;;;1.42;0.90;;;;;;;;;;20840637;28;20052;-62
2023/04/29 19:26:03;;;;;;;1.63;0.50;;;;;;;;;;20840440;28;20054;-61
2023/04/29 19:36:06;;;;;;;2.15;1.00;;;;;;;;;;20840768;28;20099;-61
2023/04/29 19:46:07;;;;;;;1.30;0.50;;;;;;;;;;20840742;28;20407;-63
2023/04/29 19:56:09;;;;;;;1.35;0.70;;;;;;;;;;20838180;28;20054;-62
2023/04/29 20:06:11;;;;;;;1.70;0.93;;;;;;;;;;20838593;28;20053;-62
2023/04/29 20:16:13;;;;;;;2.65;1.23;;;;;;;;;;20837952;28;20049;-62
2023/04/29 20:26:15;;;;;;;2.33;1.10;;;;;;;;;;20836227;28;20061;-63
2023/04/29 20:36:17;;;;;;;2.58;1.00;;;;;;;;;;20836020;28;20049;-63
2023/04/29 20:46:19;;;;;;;1.95;0.90;;;;;;;;;;20834104;28;20046;-61
2023/04/29 20:56:22;;;;;;;1.60;0.73;;;;;;;;;;20834006;28;20080;-62
2023/04/29 21:06:26;;;;;;;2.22;1.05;;;;;;;;;;20832601;28;20049;-62
2023/04/29 21:16:28;;;;;;;1.00;0.50;;;;;;;;;;20831595;28;20046;-64
2023/04/29 21:26:30;;;;;;;1.17;0.60;;;;;;;;;;20830496;28;20056;-63
2023/04/29 21:36:32;;;;;;;1.30;0.60;;;;;;;;;;20831605;28;20054;-62
2023/04/29 21:46:35;;;;;;;1.15;0.80;;;;;;;;;;20831875;28;20045;-63
2023/04/29 21:56:37;;;;;;;1.67;0.43;;;;;;;;;;20829162;28;20099;-63
2023/04/29 22:06:39;;;;;;;0.77;0.45;;;;;;;;;;20827879;28;20140;-62
2023/04/29 22:16:41;;;;;;;3.22;0.57;;;;;;;;;;20829807;28;20056;-63
2023/04/29 22:26:43;;;;;;;1.92;0.70;;;;;;;;;;20828456;28;20068;-62
2023/04/29 22:36:44;;;;;;;2.03;0.75;;;;;;;;;;20829954;28;20065;-61
2023/04/29 22:46:46;;;;;;;0.52;0.40;;;;;;;;;;20829879;28;20403;-63
2023/04/29 22:56:48;;;;;;;1.00;0.70;;;;;;;;;;20829567;28;20088;-61
2023/04/29 23:06:50;;;;;;;3.85;1.38;;;;;;;;;;20829243;28;20046;-63
2023/04/29 23:16:52;;;;;;;3.47;1.13;;;;;;;;;;20839307;28;20410;-62
2023/04/29 23:26:54;;;;;;;3.28;1.20;;;;;;;;;;20842175;28;20502;-60
2023/04/29 23:36:56;;;;;;;1.85;1.20;;;;;;;;;;20842021;28;20487;-62
2023/04/29 23:46:58;;;;;;;5.15;0.98;;;;;;;;;;20839808;28;20053;-61
2023/04/29 23:57:01;;;;;;;2.38;1.10;;;;;;;;;;20840642;28;20072;-61
